sensor_id;sensor_type;location;lat;lon;timestamp;pressure;altitude;pressure_sealevel;temperature;humidity
68301;BME280;55146;47.468;18.806;2023-12-28T00:01:39;100866.97;;;4.21;93.73
68301;BME280;55146;47.468;18.806;2023-12-28T00:04:05;100864.91;;;4.16;93.50
68301;BME280;55146;47.468;18.806;2023-12-28T00:06:30;100866.16;;;4.14;93.41
68301;BME280;55146;47.468;18.806;2023-12-28T00:08:55;100878.13;;;4.13;93.27
68301;BME280;55146;47.468;18.806;2023-12-28T00:11:20;100875.41;;;4.06;93.16
68301;BME280;55146;47.468;18.806;2023-12-28T00:13:46;100876.88;;;4.02;93.03
68301;BME280;55146;47.468;18.806;2023-12-28T00:16:11;100880.66;;;3.94;92.98
68301;BME280;55146;47.468;18.806;2023-12-28T00:18:37;100882.75;;;3.92;93.66
68301;BME280;55146;47.468;18.806;2023-12-28T00:21:02;100875.00;;;3.89;93.05
68301;BME280;55146;47.468;18.806;2023-12-28T00:23:27;100874.81;;;3.84;92.99
68301;BME280;55146;47.468;18.806;2023-12-28T00:25:53;100876.06;;;3.88;93.40
68301;BME280;55146;47.468;18.806;2023-12-28T00:28:18;100866.22;;;3.87;92.99
68301;BME280;55146;47.468;18.806;2023-12-28T00:30:43;100866.03;;;3.82;93.05
68301;BME280;55146;47.468;18.806;2023-12-28T00:33:09;100874.19;;;3.82;92.96
68301;BME280;55146;47.468;18.806;2023-12-28T00:35:34;100867.28;;;3.73;92.91
68301;BME280;55146;47.468;18.806;2023-12-28T00:37:59;100876.94;;;3.69;93.07
68301;BME280;55146;47.468;18.806;2023-12-28T00:40:24;100879.22;;;3.65;92.61
68301;BME280;55146;47.468;18.806;2023-12-28T00:42:50;100878.38;;;3.58;92.77
68301;BME280;55146;47.468;18.806;2023-12-28T00:45:15;100883.41;;;3.55;93.29
68301;BME280;55146;47.468;18.806;2023-12-28T00:47:41;100891.97;;;3.52;93.42
68301;BME280;55146;47.468;18.806;2023-12-28T00:50:08;100881.53;;;3.42;93.04
68301;BME280;55146;47.468;18.806;2023-12-28T00:52:34;100888.84;;;3.42;93.36
68301;BME280;55146;47.468;18.806;2023-12-28T00:54:59;100885.91;;;3.37;93.15
68301;BME280;55146;47.468;18.806;2023-12-28T00:57:25;100891.97;;;3.32;93.48
68301;BME280;55146;47.468;18.806;2023-12-28T00:59:50;100883.00;;;3.32;93.29
68301;BME280;55146;47.468;18.806;2023-12-28T01:02:15;100886.09;;;3.29;93.57
68301;BME280;55146;47.468;18.806;2023-12-28T01:04:40;100892.81;;;3.26;93.40
68301;BME280;55146;47.468;18.806;2023-12-28T01:07:06;100892.81;;;3.26;93.54
68301;BME280;55146;47.468;18.806;2023-12-28T01:09:31;100882.78;;;3.27;93.84
68301;BME280;55146;47.468;18.806;2023-12-28T01:11:59;100888.19;;;3.20;94.12
68301;BME280;55146;47.468;18.806;2023-12-28T01:14:25;100890.69;;;3.21;93.95
68301;BME280;55146;47.468;18.806;2023-12-28T01:16:50;100879.41;;;3.18;93.96
68301;BME280;55146;47.468;18.806;2023-12-28T01:19:15;100887.75;;;3.16;93.94
68301;BME280;55146;47.468;18.806;2023-12-28T01:21:41;100892.34;;;3.16;93.92
68301;BME280;55146;47.468;18.806;2023-12-28T01:24:06;100889.84;;;3.08;93.49
68301;BME280;55146;47.468;18.806;2023-12-28T01:26:31;100890.69;;;3.08;94.04
68301;BME280;55146;47.468;18.806;2023-12-28T01:28:57;100881.69;;;3.08;93.73
68301;BME280;55146;47.468;18.806;2023-12-28T01:31:22;100877.09;;;3.08;93.89
68301;BME280;55146;47.468;18.806;2023-12-28T01:33:48;100879.19;;;3.06;93.57
68301;BME280;55146;47.468;18.806;2023-12-28T01:36:19;100874.56;;;3.00;93.43
68301;BME280;55146;47.468;18.806;2023-12-28T01:38:46;100867.47;;;2.99;93.98
68301;BME280;55146;47.468;18.806;2023-12-28T01:41:11;100857.44;;;3.00;94.36
68301;BME280;55146;47.468;18.806;2023-12-28T01:43:38;100857.00;;;2.96;94.55
68301;BME280;55146;47.468;18.806;2023-12-28T01:46:05;100853.47;;;2.96;94.51
68301;BME280;55146;47.468;18.806;2023-12-28T01:48:31;100853.87;;;2.99;94.40
68301;BME280;55146;47.468;18.806;2023-12-28T01:50:58;100859.09;;;2.94;94.16
68301;BME280;55146;47.468;18.806;2023-12-28T01:53:23;100862.22;;;2.98;94.54
68301;BME280;55146;47.468;18.806;2023-12-28T01:55:49;100861.63;;;3.02;94.68
68301;BME280;55146;47.468;18.806;2023-12-28T01:58:14;100851.16;;;3.06;94.63
68301;BME280;55146;47.468;18.806;2023-12-28T02:00:41;100840.28;;;2.99;94.60
68301;BME280;55146;47.468;18.806;2023-12-28T02:03:08;100832.34;;;2.98;94.66
68301;BME280;55146;47.468;18.806;2023-12-28T02:05:33;100838.19;;;2.88;94.22
68301;BME280;55146;47.468;18.806;2023-12-28T02:07:59;100830.44;;;2.85;94.38
68301;BME280;55146;47.468;18.806;2023-12-28T02:10:24;100832.28;;;2.78;94.54
68301;BME280;55146;47.468;18.806;2023-12-28T02:12:50;100835.22;;;2.76;94.32
68301;BME280;55146;47.468;18.806;2023-12-28T02:15:18;100833.34;;;2.77;94.59
68301;BME280;55146;47.468;18.806;2023-12-28T02:20:24;100846.94;;;2.83;95.02
68301;BME280;55146;47.468;18.806;2023-12-28T02:22:50;100835.66;;;2.87;95.17
68301;BME280;55146;47.468;18.806;2023-12-28T02:25:16;100828.53;;;2.85;95.08
68301;BME280;55146;47.468;18.806;2023-12-28T02:27:43;100827.28;;;2.81;94.77
68301;BME280;55146;47.468;18.806;2023-12-28T02:30:11;100815.16;;;2.84;95.11
68301;BME280;55146;47.468;18.806;2023-12-28T02:35:57;100816.41;;;2.75;95.45
68301;BME280;55146;47.468;18.806;2023-12-28T02:38:24;100810.16;;;2.81;96.16
68301;BME280;55146;47.468;18.806;2023-12-28T02:40:50;100806.59;;;2.80;96.03
68301;BME280;55146;47.468;18.806;2023-12-28T02:43:16;100817.25;;;2.75;96.60
68301;BME280;55146;47.468;18.806;2023-12-28T02:45:41;100815.38;;;2.76;96.71
68301;BME280;55146;47.468;18.806;2023-12-28T02:48:07;100802.84;;;2.75;96.81
68301;BME280;55146;47.468;18.806;2023-12-28T02:50:33;100793.19;;;2.72;96.37
68301;BME280;55146;47.468;18.806;2023-12-28T02:52:59;100799.69;;;2.78;96.68
68301;BME280;55146;47.468;18.806;2023-12-28T02:55:25;100804.31;;;2.77;96.72
68301;BME280;55146;47.468;18.806;2023-12-28T02:57:51;100804.06;;;2.72;97.40
68301;BME280;55146;47.468;18.806;2023-12-28T03:00:17;100796.97;;;2.78;98.08
68301;BME280;55146;47.468;18.806;2023-12-28T03:02:42;100784.22;;;2.72;98.38
68301;BME280;55146;47.468;18.806;2023-12-28T03:05:08;100787.78;;;2.79;98.36
68301;BME280;55146;47.468;18.806;2023-12-28T03:07:34;100795.31;;;2.70;99.86
68301;BME280;55146;47.468;18.806;2023-12-28T03:10:00;100795.94;;;2.79;99.02
68301;BME280;55146;47.468;18.806;2023-12-28T03:12:27;100786.56;;;2.81;99.14
68301;BME280;55146;47.468;18.806;2023-12-28T03:14:53;100785.28;;;2.91;99.06
68301;BME280;55146;47.468;18.806;2023-12-28T03:17:18;100782.16;;;2.94;98.72
68301;BME280;55146;47.468;18.806;2023-12-28T03:19:44;100774.41;;;2.91;98.94
68301;BME280;55146;47.468;18.806;2023-12-28T03:22:09;100768.38;;;2.95;99.24
68301;BME280;55146;47.468;18.806;2023-12-28T03:24:36;100776.53;;;2.89;98.53
68301;BME280;55146;47.468;18.806;2023-12-28T03:27:02;100764.00;;;2.94;98.93
68301;BME280;55146;47.468;18.806;2023-12-28T03:29:27;100758.97;;;2.98;98.76
68301;BME280;55146;47.468;18.806;2023-12-28T03:31:53;100753.72;;;3.09;98.69
68301;BME280;55146;47.468;18.806;2023-12-28T03:34:18;100754.38;;;3.18;98.37
68301;BME280;55146;47.468;18.806;2023-12-28T03:36:43;100753.53;;;3.17;97.83
68301;BME280;55146;47.468;18.806;2023-12-28T03:39:09;100753.72;;;3.16;99.31
68301;BME280;55146;47.468;18.806;2023-12-28T03:41:34;100753.53;;;3.17;98.89
68301;BME280;55146;47.468;18.806;2023-12-28T03:43:59;100741.81;;;3.10;98.43
68301;BME280;55146;47.468;18.806;2023-12-28T03:46:25;100743.91;;;3.15;98.58
68301;BME280;55146;47.468;18.806;2023-12-28T03:48:52;100743.94;;;3.08;98.04
68301;BME280;55146;47.468;18.806;2023-12-28T03:51:17;100736.38;;;3.04;98.72
68301;BME280;55146;47.468;18.806;2023-12-28T03:53:43;100725.94;;;3.01;97.96
68301;BME280;55146;47.468;18.806;2023-12-28T03:56:18;100722.41;;;3.07;98.35
68301;BME280;55146;47.468;18.806;2023-12-28T03:58:43;100727.63;;;3.02;98.37
68301;BME280;55146;47.468;18.806;2023-12-28T04:01:09;100735.34;;;2.92;98.71
68301;BME280;55146;47.468;18.806;2023-12-28T04:03:35;100728.87;;;2.93;99.84
68301;BME280;55146;47.468;18.806;2023-12-28T04:06:00;100730.94;;;2.91;99.50
68301;BME280;55146;47.468;18.806;2023-12-28T04:08:25;100738.91;;;2.99;99.89
68301;BME280;55146;47.468;18.806;2023-12-28T04:10:50;100730.53;;;2.94;99.37
68301;BME280;55146;47.468;18.806;2023-12-28T04:13:16;100727.63;;;2.95;98.86
68301;BME280;55146;47.468;18.806;2023-12-28T04:15:42;100733.06;;;2.95;98.31
68301;BME280;55146;47.468;18.806;2023-12-28T04:18:08;100727.41;;;2.97;97.76
68301;BME280;55146;47.468;18.806;2023-12-28T04:20:33;100725.50;;;2.97;97.99
68301;BME280;55146;47.468;18.806;2023-12-28T04:22:59;100718.63;;;3.08;98.50
68301;BME280;55146;47.468;18.806;2023-12-28T04:25:24;100717.56;;;3.09;99.07
68301;BME280;55146;47.468;18.806;2023-12-28T04:27:49;100719.03;;;3.24;99.10
68301;BME280;55146;47.468;18.806;2023-12-28T04:30:15;100706.91;;;3.27;98.56
68301;BME280;55146;47.468;18.806;2023-12-28T04:32:40;100703.94;;;3.35;98.58
68301;BME280;55146;47.468;18.806;2023-12-28T04:35:06;100705.41;;;3.38;98.35
68301;BME280;55146;47.468;18.806;2023-12-28T04:37:31;100693.69;;;3.37;98.13
68301;BME280;55146;47.468;18.806;2023-12-28T04:39:58;100697.47;;;3.30;97.95
68301;BME280;55146;47.468;18.806;2023-12-28T04:42:23;100696.41;;;3.37;98.35
68301;BME280;55146;47.468;18.806;2023-12-28T04:44:48;100693.06;;;3.35;98.29
68301;BME280;55146;47.468;18.806;2023-12-28T04:47:14;100700.56;;;3.40;98.26
68301;BME280;55146;47.468;18.806;2023-12-28T04:49:39;100701.03;;;3.37;98.21
68301;BME280;55146;47.468;18.806;2023-12-28T04:52:04;100691.84;;;3.31;98.35
68301;BME280;55146;47.468;18.806;2023-12-28T04:54:30;100692.03;;;3.23;98.53
68301;BME280;55146;47.468;18.806;2023-12-28T04:56:55;100697.06;;;3.26;99.27
68301;BME280;55146;47.468;18.806;2023-12-28T04:59:20;100706.91;;;3.20;98.68
68301;BME280;55146;47.468;18.806;2023-12-28T05:01:46;100703.12;;;3.15;98.83
68301;BME280;55146;47.468;18.806;2023-12-28T05:04:11;100695.59;;;3.30;98.60
68301;BME280;55146;47.468;18.806;2023-12-28T05:06:37;100703.53;;;3.38;98.09
68301;BME280;55146;47.468;18.806;2023-12-28T05:09:03;100694.53;;;3.38;97.67
68301;BME280;55146;47.468;18.806;2023-12-28T05:11:29;100702.03;;;3.42;97.27
68301;BME280;55146;47.468;18.806;2023-12-28T05:13:54;100710.19;;;3.49;97.02
68301;BME280;55146;47.468;18.806;2023-12-28T05:16:20;100716.47;;;3.43;96.69
68301;BME280;55146;47.468;18.806;2023-12-28T05:18:46;100720.69;;;3.39;96.55
68301;BME280;55146;47.468;18.806;2023-12-28T05:21:14;100727.38;;;3.43;96.42
68301;BME280;55146;47.468;18.806;2023-12-28T05:23:40;100726.97;;;3.39;96.30
68301;BME280;55146;47.468;18.806;2023-12-28T05:26:05;100725.47;;;3.43;95.71
68301;BME280;55146;47.468;18.806;2023-12-28T05:28:31;100717.53;;;3.29;95.42
68301;BME280;55146;47.468;18.806;2023-12-28T05:30:56;100720.06;;;3.23;95.84
68301;BME280;55146;47.468;18.806;2023-12-28T05:33:24;100712.34;;;3.20;95.92
68301;BME280;55146;47.468;18.806;2023-12-28T05:35:50;100727.81;;;3.13;95.74
68301;BME280;55146;47.468;18.806;2023-12-28T05:38:15;100727.81;;;3.07;96.19
68301;BME280;55146;47.468;18.806;2023-12-28T05:40:40;100724.28;;;3.06;96.52
68301;BME280;55146;47.468;18.806;2023-12-28T05:43:06;100719.69;;;2.94;95.72
68301;BME280;55146;47.468;18.806;2023-12-28T05:45:31;100727.81;;;2.87;95.74
68301;BME280;55146;47.468;18.806;2023-12-28T05:47:56;100740.16;;;2.83;96.11
68301;BME280;55146;47.468;18.806;2023-12-28T05:50:22;100726.97;;;2.73;96.33
68301;BME280;55146;47.468;18.806;2023-12-28T05:52:47;100726.97;;;2.67;96.26
68301;BME280;55146;47.468;18.806;2023-12-28T05:55:13;100725.09;;;2.67;96.74
68301;BME280;55146;47.468;18.806;2023-12-28T05:57:38;100738.28;;;2.70;96.59
68301;BME280;55146;47.468;18.806;2023-12-28T06:00:04;100732.59;;;2.72;96.32
68301;BME280;55146;47.468;18.806;2023-12-28T06:02:31;100729.28;;;2.70;96.06
68301;BME280;55146;47.468;18.806;2023-12-28T06:04:56;100724.69;;;2.64;96.00
68301;BME280;55146;47.468;18.806;2023-12-28T06:07:22;100736.16;;;2.66;96.79
68301;BME280;55146;47.468;18.806;2023-12-28T06:09:47;100735.53;;;2.64;96.99
68301;BME280;55146;47.468;18.806;2023-12-28T06:12:13;100733.47;;;2.59;96.36
68301;BME280;55146;47.468;18.806;2023-12-28T06:14:38;100734.91;;;2.55;96.03
68301;BME280;55146;47.468;18.806;2023-12-28T06:17:04;100738.44;;;2.49;95.66
68301;BME280;55146;47.468;18.806;2023-12-28T06:19:29;100738.63;;;2.48;96.45
68301;BME280;55146;47.468;18.806;2023-12-28T06:21:55;100737.19;;;2.52;96.19
68301;BME280;55146;47.468;18.806;2023-12-28T06:24:20;100728.00;;;2.46;96.59
68301;BME280;55146;47.468;18.806;2023-12-28T06:26:46;100721.28;;;2.42;96.39
68301;BME280;55146;47.468;18.806;2023-12-28T06:29:11;100726.13;;;2.40;96.34
68301;BME280;55146;47.468;18.806;2023-12-28T06:31:37;100731.75;;;2.38;96.89
68301;BME280;55146;47.468;18.806;2023-12-28T06:34:03;100730.06;;;2.37;97.07
68301;BME280;55146;47.468;18.806;2023-12-28T06:36:29;100745.94;;;2.34;96.46
68301;BME280;55146;47.468;18.806;2023-12-28T06:38:54;100747.38;;;2.30;96.91
68301;BME280;55146;47.468;18.806;2023-12-28T06:41:20;100753.62;;;2.30;96.57
68301;BME280;55146;47.468;18.806;2023-12-28T06:43:45;100769.91;;;2.30;96.31
68301;BME280;55146;47.468;18.806;2023-12-28T06:46:10;100775.53;;;2.29;96.12
68301;BME280;55146;47.468;18.806;2023-12-28T06:48:36;100769.91;;;2.30;96.46
68301;BME280;55146;47.468;18.806;2023-12-28T06:51:03;100774.75;;;2.28;96.33
68301;BME280;55146;47.468;18.806;2023-12-28T06:53:28;100776.22;;;2.37;96.69
68301;BME280;55146;47.468;18.806;2023-12-28T06:55:54;100775.81;;;2.40;96.40
68301;BME280;55146;47.468;18.806;2023-12-28T06:58:19;100783.31;;;2.38;96.12
68301;BME280;55146;47.468;18.806;2023-12-28T07:00:44;100772.66;;;2.37;96.25
68301;BME280;55146;47.468;18.806;2023-12-28T07:03:10;100764.72;;;2.42;96.50
68301;BME280;55146;47.468;18.806;2023-12-28T07:05:35;100767.66;;;2.47;96.65
68301;BME280;55146;47.468;18.806;2023-12-28T07:08:00;100769.34;;;2.55;96.96
68301;BME280;55146;47.468;18.806;2023-12-28T07:10:26;100765.41;;;2.57;96.56
68301;BME280;55146;47.468;18.806;2023-12-28T07:12:51;100760.59;;;2.53;96.34
68301;BME280;55146;47.468;18.806;2023-12-28T07:15:17;100758.47;;;2.48;95.98
68301;BME280;55146;47.468;18.806;2023-12-28T07:17:42;100769.13;;;2.50;95.98
68301;BME280;55146;47.468;18.806;2023-12-28T07:20:08;100773.50;;;2.44;96.21
68301;BME280;55146;47.468;18.806;2023-12-28T07:22:36;100780.19;;;2.41;96.75
68301;BME280;55146;47.468;18.806;2023-12-28T07:25:02;100774.78;;;2.48;97.26
68301;BME280;55146;47.468;18.806;2023-12-28T07:27:27;100787.53;;;2.54;96.79
68301;BME280;55146;47.468;18.806;2023-12-28T07:29:52;100783.75;;;2.49;96.33
68301;BME280;55146;47.468;18.806;2023-12-28T07:32:18;100789.66;;;2.59;96.54
68301;BME280;55146;47.468;18.806;2023-12-28T07:34:45;100782.13;;;2.67;96.18
68301;BME280;55146;47.468;18.806;2023-12-28T07:37:10;100789.87;;;2.70;95.45
68301;BME280;55146;47.468;18.806;2023-12-28T07:39:35;100793.44;;;2.77;95.04
68301;BME280;55146;47.468;18.806;2023-12-28T07:42:01;100794.06;;;2.86;94.42
68301;BME280;55146;47.468;18.806;2023-12-28T07:44:26;100784.88;;;2.94;93.76
68301;BME280;55146;47.468;18.806;2023-12-28T07:46:52;100795.78;;;3.07;93.14
68301;BME280;55146;47.468;18.806;2023-12-28T07:49:17;100800.56;;;3.05;93.52
68301;BME280;55146;47.468;18.806;2023-12-28T07:51:43;100785.09;;;3.12;93.64
68301;BME280;55146;47.468;18.806;2023-12-28T07:54:08;100780.50;;;3.25;93.06
68301;BME280;55146;47.468;18.806;2023-12-28T07:56:33;100778.41;;;3.34;93.12
68301;BME280;55146;47.468;18.806;2023-12-28T07:58:59;100781.75;;;3.49;93.02
68301;BME280;55146;47.468;18.806;2023-12-28T08:01:24;100779.22;;;3.61;92.27
68301;BME280;55146;47.468;18.806;2023-12-28T08:03:50;100778.16;;;3.69;91.39
68301;BME280;55146;47.468;18.806;2023-12-28T08:06:15;100769.13;;;3.75;91.28
68301;BME280;55146;47.468;18.806;2023-12-28T08:08:41;100779.37;;;3.79;91.02
68301;BME280;55146;47.468;18.806;2023-12-28T08:11:06;100778.12;;;3.82;91.40
68301;BME280;55146;47.468;18.806;2023-12-28T08:13:32;100768.06;;;3.89;91.24
68301;BME280;55146;47.468;18.806;2023-12-28T08:15:57;100762.34;;;3.97;91.10
68301;BME280;55146;47.468;18.806;2023-12-28T08:18:23;100765.69;;;4.05;91.13
68301;BME280;55146;47.468;18.806;2023-12-28T08:20:48;100764.00;;;4.11;91.61
68301;BME280;55146;47.468;18.806;2023-12-28T08:23:15;100774.81;;;4.24;91.43
68301;BME280;55146;47.468;18.806;2023-12-28T08:25:40;100769.09;;;4.32;91.06
68301;BME280;55146;47.468;18.806;2023-12-28T08:28:06;100766.16;;;4.40;90.28
68301;BME280;55146;47.468;18.806;2023-12-28T08:30:31;100760.88;;;4.45;90.25
68301;BME280;55146;47.468;18.806;2023-12-28T08:32:56;100773.38;;;4.60;90.37
68301;BME280;55146;47.468;18.806;2023-12-28T08:35:22;100774.72;;;4.75;90.47
68301;BME280;55146;47.468;18.806;2023-12-28T08:37:47;100776.94;;;4.92;90.69
68301;BME280;55146;47.468;18.806;2023-12-28T08:40:13;100777.44;;;5.07;90.02
68301;BME280;55146;47.468;18.806;2023-12-28T08:42:38;100788.09;;;5.15;90.09
68301;BME280;55146;47.468;18.806;2023-12-28T08:45:04;100789.75;;;5.16;88.34
68301;BME280;55146;47.468;18.806;2023-12-28T08:47:29;100788.28;;;5.13;87.22
68301;BME280;55146;47.468;18.806;2023-12-28T08:49:55;100790.44;;;5.11;85.78
68301;BME280;55146;47.468;18.806;2023-12-28T08:52:20;100788.75;;;5.10;86.22
68301;BME280;55146;47.468;18.806;2023-12-28T08:54:46;100789.31;;;5.19;86.21
68301;BME280;55146;47.468;18.806;2023-12-28T08:57:11;100780.84;;;5.27;87.37
68301;BME280;55146;47.468;18.806;2023-12-28T08:59:37;100784.31;;;5.41;87.10
68301;BME280;55146;47.468;18.806;2023-12-28T09:02:02;100777.44;;;5.56;87.34
68301;BME280;55146;47.468;18.806;2023-12-28T09:04:27;100778.69;;;5.79;86.48
68301;BME280;55146;47.468;18.806;2023-12-28T09:06:53;100778.66;;;6.03;86.40
68301;BME280;55146;47.468;18.806;2023-12-28T09:09:18;100775.97;;;6.33;85.59
68301;BME280;55146;47.468;18.806;2023-12-28T09:11:44;100776.19;;;6.62;85.24
68301;BME280;55146;47.468;18.806;2023-12-28T09:14:09;100774.28;;;6.92;84.06
68301;BME280;55146;47.468;18.806;2023-12-28T09:16:34;100760.56;;;7.22;82.16
68301;BME280;55146;47.468;18.806;2023-12-28T09:19:00;100763.53;;;7.32;81.86
68301;BME280;55146;47.468;18.806;2023-12-28T09:21:26;100762.81;;;7.48;81.01
68301;BME280;55146;47.468;18.806;2023-12-28T09:23:52;100762.37;;;7.63;81.04
68301;BME280;55146;47.468;18.806;2023-12-28T09:26:17;100762.97;;;7.77;79.92
68301;BME280;55146;47.468;18.806;2023-12-28T09:28:43;100764.25;;;7.86;80.11
68301;BME280;55146;47.468;18.806;2023-12-28T09:31:08;100753.03;;;7.99;79.87
68301;BME280;55146;47.468;18.806;2023-12-28T09:33:34;100749.88;;;8.19;78.90
68301;BME280;55146;47.468;18.806;2023-12-28T09:35:59;100748.41;;;8.28;79.09
68301;BME280;55146;47.468;18.806;2023-12-28T09:38:25;100743.91;;;8.22;78.47
68301;BME280;55146;47.468;18.806;2023-12-28T09:40:53;100745.37;;;8.52;77.35
68301;BME280;55146;47.468;18.806;2023-12-28T09:43:25;100752.97;;;8.62;77.82
68301;BME280;55146;47.468;18.806;2023-12-28T09:45:51;100743.56;;;8.58;77.16
68301;BME280;55146;47.468;18.806;2023-12-28T09:48:18;100735.97;;;8.77;77.83
68301;BME280;55146;47.468;18.806;2023-12-28T09:50:45;100725.94;;;8.99;76.04
68301;BME280;55146;47.468;18.806;2023-12-28T09:53:12;100724.87;;;9.17;75.03
68301;BME280;55146;47.468;18.806;2023-12-28T09:55:37;100716.06;;;9.31;74.85
68301;BME280;55146;47.468;18.806;2023-12-28T09:58:03;100713.22;;;9.43;74.33
68301;BME280;55146;47.468;18.806;2023-12-28T10:00:31;100717.34;;;9.46;73.70
68301;BME280;55146;47.468;18.806;2023-12-28T10:02:56;100712.59;;;9.58;74.40
68301;BME280;55146;47.468;18.806;2023-12-28T10:05:22;100704.94;;;9.60;72.58
68301;BME280;55146;47.468;18.806;2023-12-28T10:07:47;100709.84;;;9.58;73.32
68301;BME280;55146;47.468;18.806;2023-12-28T10:10:13;100703.75;;;9.72;73.52
68301;BME280;55146;47.468;18.806;2023-12-28T10:12:39;100706.88;;;9.81;72.24
68301;BME280;55146;47.468;18.806;2023-12-28T10:15:05;100697.41;;;9.72;72.13
68301;BME280;55146;47.468;18.806;2023-12-28T10:17:34;100691.97;;;9.77;72.42
68301;BME280;55146;47.468;18.806;2023-12-28T10:20:01;100701.81;;;9.95;71.38
68301;BME280;55146;47.468;18.806;2023-12-28T10:22:30;100695.44;;;9.89;70.96
68301;BME280;55146;47.468;18.806;2023-12-28T10:24:56;100679.78;;;9.90;71.32
68301;BME280;55146;47.468;18.806;2023-12-28T10:27:22;100684.69;;;9.88;71.81
68301;BME280;55146;47.468;18.806;2023-12-28T10:29:47;100686.16;;;9.95;72.23
68301;BME280;55146;47.468;18.806;2023-12-28T10:32:13;100678.25;;;10.21;72.38
68301;BME280;55146;47.468;18.806;2023-12-28T10:34:38;100673.78;;;10.36;69.59
68301;BME280;55146;47.468;18.806;2023-12-28T10:37:04;100660.72;;;10.27;69.93
68301;BME280;55146;47.468;18.806;2023-12-28T10:39:31;100661.31;;;10.29;70.23
68301;BME280;55146;47.468;18.806;2023-12-28T10:41:59;100651.97;;;10.30;69.70
68301;BME280;55146;47.468;18.806;2023-12-28T10:44:31;100661.81;;;10.26;69.57
68301;BME280;55146;47.468;18.806;2023-12-28T10:47:00;100663.81;;;10.30;70.34
68301;BME280;55146;47.468;18.806;2023-12-28T10:49:26;100665.78;;;10.35;69.97
68301;BME280;55146;47.468;18.806;2023-12-28T10:51:53;100654.31;;;10.43;69.79
68301;BME280;55146;47.468;18.806;2023-12-28T10:54:39;100647.78;;;10.49;69.51
68301;BME280;55146;47.468;18.806;2023-12-28T10:57:22;100649.31;;;10.67;68.89
68301;BME280;55146;47.468;18.806;2023-12-28T11:02:28;100650.72;;;10.74;68.97
68301;BME280;55146;47.468;18.806;2023-12-28T11:04:54;100641.97;;;10.77;68.52
68301;BME280;55146;47.468;18.806;2023-12-28T11:07:21;100636.34;;;10.99;68.75
68301;BME280;55146;47.468;18.806;2023-12-28T11:09:47;100643.50;;;10.95;67.51
68301;BME280;55146;47.468;18.806;2023-12-28T11:12:16;100640.50;;;11.02;68.01
68301;BME280;55146;47.468;18.806;2023-12-28T11:14:44;100629.38;;;11.23;68.26
68301;BME280;55146;47.468;18.806;2023-12-28T11:17:10;100635.25;;;11.42;67.16
68301;BME280;55146;47.468;18.806;2023-12-28T11:19:36;100634.41;;;11.36;66.91
68301;BME280;55146;47.468;18.806;2023-12-28T11:22:03;100633.69;;;11.51;66.83
68301;BME280;55146;47.468;18.806;2023-12-28T11:24:29;100625.44;;;11.56;66.44
68301;BME280;55146;47.468;18.806;2023-12-28T11:26:56;100619.66;;;11.58;66.89
68301;BME280;55146;47.468;18.806;2023-12-28T11:29:22;100615.53;;;11.60;66.43
68301;BME280;55146;47.468;18.806;2023-12-28T11:31:53;100610.88;;;11.66;65.70
68301;BME280;55146;47.468;18.806;2023-12-28T11:34:19;100595.69;;;11.53;65.56
68301;BME280;55146;47.468;18.806;2023-12-28T11:36:49;100590.16;;;11.53;65.97
68301;BME280;55146;47.468;18.806;2023-12-28T11:39:26;100589.00;;;11.44;66.31
68301;BME280;55146;47.468;18.806;2023-12-28T11:41:59;100593.13;;;11.42;66.91
68301;BME280;55146;47.468;18.806;2023-12-28T11:44:26;100578.00;;;11.49;66.81
68301;BME280;55146;47.468;18.806;2023-12-28T11:46:52;100579.09;;;11.48;66.71
68301;BME280;55146;47.468;18.806;2023-12-28T11:49:25;100571.97;;;11.52;66.28
68301;BME280;55146;47.468;18.806;2023-12-28T11:51:55;100567.72;;;11.29;67.32
68301;BME280;55146;47.468;18.806;2023-12-28T11:54:21;100556.53;;;11.56;65.99
68301;BME280;55146;47.468;18.806;2023-12-28T11:56:46;100557.38;;;11.52;65.86
68301;BME280;55146;47.468;18.806;2023-12-28T11:59:12;100552.13;;;11.50;66.54
68301;BME280;55146;47.468;18.806;2023-12-28T12:01:37;100550.50;;;11.59;65.82
68301;BME280;55146;47.468;18.806;2023-12-28T12:04:02;100557.94;;;11.54;65.43
68301;BME280;55146;47.468;18.806;2023-12-28T12:06:28;100558.41;;;11.35;65.84
68301;BME280;55146;47.468;18.806;2023-12-28T12:08:54;100556.75;;;11.40;66.60
68301;BME280;55146;47.468;18.806;2023-12-28T12:11:19;100555.34;;;11.37;65.82
68301;BME280;55146;47.468;18.806;2023-12-28T12:13:45;100544.09;;;11.39;66.69
68301;BME280;55146;47.468;18.806;2023-12-28T12:16:13;100538.56;;;11.39;66.06
68301;BME280;55146;47.468;18.806;2023-12-28T12:18:39;100535.81;;;11.39;65.94
68301;BME280;55146;47.468;18.806;2023-12-28T12:21:04;100530.81;;;11.30;66.53
68301;BME280;55146;47.468;18.806;2023-12-28T12:23:31;100535.22;;;11.26;67.24
68301;BME280;55146;47.468;18.806;2023-12-28T12:25:57;100534.41;;;11.36;66.33
68301;BME280;55146;47.468;18.806;2023-12-28T12:28:23;100536.88;;;11.27;66.87
68301;BME280;55146;47.468;18.806;2023-12-28T12:30:53;100533.72;;;11.04;67.56
68301;BME280;55146;47.468;18.806;2023-12-28T12:33:21;100542.13;;;10.87;68.52
68301;BME280;55146;47.468;18.806;2023-12-28T12:35:46;100543.19;;;10.81;69.08
68301;BME280;55146;47.468;18.806;2023-12-28T12:38:12;100550.38;;;10.87;68.79
68301;BME280;55146;47.468;18.806;2023-12-28T12:40:37;100546.16;;;10.74;69.62
68301;BME280;55146;47.468;18.806;2023-12-28T12:43:03;100551.44;;;10.81;68.33
68301;BME280;55146;47.468;18.806;2023-12-28T12:45:28;100543.72;;;10.73;69.55
68301;BME280;55146;47.468;18.806;2023-12-28T12:47:54;100547.06;;;10.80;69.78
68301;BME280;55146;47.468;18.806;2023-12-28T12:50:19;100544.81;;;10.77;69.69